sensor_id;sensor_type;location;lat;lon;timestamp;P1;durP1;ratioP1;P2;durP2;ratioP2
74872;SDS011;68776;44.762;37.698;2023-06-14T00:00:47;7.00;;;3.00;;
74872;SDS011;68776;44.762;37.698;2023-06-14T00:01:49;8.75;;;3.95;;
74872;SDS011;68776;44.762;37.698;2023-06-14T00:02:50;10.07;;;3.65;;
74872;SDS011;68776;44.762;37.698;2023-06-14T00:03:51;7.57;;;3.25;;
74872;SDS011;68776;44.762;37.698;2023-06-14T00:04:52;9.25;;;3.58;;
74872;SDS011;68776;44.762;37.698;2023-06-14T00:05:53;8.33;;;3.60;;
74872;SDS011;68776;44.762;37.698;2023-06-14T00:06:55;8.10;;;3.40;;
74872;SDS011;68776;44.762;37.698;2023-06-14T00:07:57;7.38;;;2.92;;
74872;SDS011;68776;44.762;37.698;2023-06-14T00:09:00;11.30;;;3.05;;
74872;SDS011;68776;44.762;37.698;2023-06-14T00:10:02;9.52;;;3.85;;
74872;SDS011;68776;44.762;37.698;2023-06-14T00:11:04;7.57;;;3.30;;
74872;SDS011;68776;44.762;37.698;2023-06-14T00:12:06;9.00;;;3.77;;
74872;SDS011;68776;44.762;37.698;2023-06-14T00:13:09;8.13;;;3.40;;
74872;SDS011;68776;44.762;37.698;2023-06-14T00:14:10;9.18;;;3.60;;
74872;SDS011;68776;44.762;37.698;2023-06-14T00:15:11;10.07;;;3.67;;
74872;SDS011;68776;44.762;37.698;2023-06-14T00:16:12;12.00;;;3.28;;
74872;SDS011;68776;44.762;37.698;2023-06-14T00:17:13;8.65;;;3.35;;
74872;SDS011;68776;44.762;37.698;2023-06-14T00:18:16;8.50;;;3.25;;
74872;SDS011;68776;44.762;37.698;2023-06-14T00:19:18;12.45;;;3.35;;
74872;SDS011;68776;44.762;37.698;2023-06-14T00:20:20;8.25;;;3.55;;
74872;SDS011;68776;44.762;37.698;2023-06-14T00:21:21;9.15;;;3.75;;
74872;SDS011;68776;44.762;37.698;2023-06-14T00:22:22;9.82;;;3.50;;
74872;SDS011;68776;44.762;37.698;2023-06-14T00:23:28;8.43;;;3.15;;
74872;SDS011;68776;44.762;37.698;2023-06-14T00:24:30;8.07;;;3.17;;
74872;SDS011;68776;44.762;37.698;2023-06-14T00:25:31;9.48;;;3.42;;
74872;SDS011;68776;44.762;37.698;2023-06-14T00:26:31;9.40;;;3.83;;
74872;SDS011;68776;44.762;37.698;2023-06-14T00:27:32;10.20;;;4.10;;
74872;SDS011;68776;44.762;37.698;2023-06-14T00:28:33;8.43;;;3.83;;
74872;SDS011;68776;44.762;37.698;2023-06-14T00:29:34;11.02;;;3.90;;
74872;SDS011;68776;44.762;37.698;2023-06-14T00:30:38;10.63;;;3.70;;
74872;SDS011;68776;44.762;37.698;2023-06-14T00:31:39;7.35;;;3.58;;
74872;SDS011;68776;44.762;37.698;2023-06-14T00:32:40;9.13;;;3.17;;
74872;SDS011;68776;44.762;37.698;2023-06-14T00:33:43;7.60;;;2.83;;
74872;SDS011;68776;44.762;37.698;2023-06-14T00:34:46;8.48;;;3.60;;
74872;SDS011;68776;44.762;37.698;2023-06-14T00:35:47;8.38;;;3.25;;
74872;SDS011;68776;44.762;37.698;2023-06-14T00:36:48;11.98;;;3.70;;
74872;SDS011;68776;44.762;37.698;2023-06-14T00:37:49;8.13;;;3.35;;
74872;SDS011;68776;44.762;37.698;2023-06-14T00:38:50;7.07;;;2.78;;
74872;SDS011;68776;44.762;37.698;2023-06-14T00:39:51;10.03;;;3.80;;
74872;SDS011;68776;44.762;37.698;2023-06-14T00:40:53;10.23;;;3.75;;
74872;SDS011;68776;44.762;37.698;2023-06-14T00:41:54;9.23;;;3.83;;
74872;SDS011;68776;44.762;37.698;2023-06-14T00:42:55;9.70;;;3.50;;
74872;SDS011;68776;44.762;37.698;2023-06-14T00:43:56;12.18;;;3.75;;
74872;SDS011;68776;44.762;37.698;2023-06-14T00:44:57;9.40;;;3.95;;
74872;SDS011;68776;44.762;37.698;2023-06-14T00:45:58;10.07;;;3.50;;
74872;SDS011;68776;44.762;37.698;2023-06-14T00:46:59;9.30;;;3.63;;
74872;SDS011;68776;44.762;37.698;2023-06-14T00:48:01;8.18;;;3.42;;
74872;SDS011;68776;44.762;37.698;2023-06-14T00:49:03;8.45;;;4.20;;
74872;SDS011;68776;44.762;37.698;2023-06-14T00:50:08;8.27;;;3.80;;
74872;SDS011;68776;44.762;37.698;2023-06-14T00:51:10;8.73;;;4.20;;
74872;SDS011;68776;44.762;37.698;2023-06-14T00:52:12;11.00;;;3.88;;
74872;SDS011;68776;44.762;37.698;2023-06-14T00:53:15;12.27;;;4.10;;
74872;SDS011;68776;44.762;37.698;2023-06-14T00:54:20;7.85;;;3.30;;
74872;SDS011;68776;44.762;37.698;2023-06-14T00:55:21;9.07;;;3.38;;
74872;SDS011;68776;44.762;37.698;2023-06-14T00:56:22;10.05;;;3.88;;
74872;SDS011;68776;44.762;37.698;2023-06-14T00:57:24;8.43;;;3.30;;
74872;SDS011;68776;44.762;37.698;2023-06-14T00:58:26;14.70;;;3.72;;
74872;SDS011;68776;44.762;37.698;2023-06-14T00:59:28;9.63;;;3.90;;
74872;SDS011;68776;44.762;37.698;2023-06-14T01:00:29;9.75;;;3.50;;
74872;SDS011;68776;44.762;37.698;2023-06-14T01:01:30;13.13;;;4.05;;
74872;SDS011;68776;44.762;37.698;2023-06-14T01:02:37;8.07;;;3.65;;
74872;SDS011;68776;44.762;37.698;2023-06-14T01:03:39;10.68;;;3.35;;
74872;SDS011;68776;44.762;37.698;2023-06-14T01:04:43;7.78;;;3.38;;
74872;SDS011;68776;44.762;37.698;2023-06-14T01:05:49;8.90;;;3.40;;
74872;SDS011;68776;44.762;37.698;2023-06-14T01:07:07;10.47;;;4.17;;
74872;SDS011;68776;44.762;37.698;2023-06-14T01:08:30;10.82;;;4.45;;
74872;SDS011;68776;44.762;37.698;2023-06-14T01:09:48;9.10;;;3.15;;
74872;SDS011;68776;44.762;37.698;2023-06-14T01:10:59;9.68;;;3.67;;
74872;SDS011;68776;44.762;37.698;2023-06-14T01:12:35;8.65;;;3.60;;
74872;SDS011;68776;44.762;37.698;2023-06-14T01:13:45;8.32;;;3.08;;
74872;SDS011;68776;44.762;37.698;2023-06-14T01:14:47;8.00;;;3.50;;
74872;SDS011;68776;44.762;37.698;2023-06-14T01:15:49;10.65;;;4.18;;
74872;SDS011;68776;44.762;37.698;2023-06-14T01:16:51;8.13;;;2.75;;
74872;SDS011;68776;44.762;37.698;2023-06-14T01:17:55;12.68;;;3.88;;
74872;SDS011;68776;44.762;37.698;2023-06-14T01:19:03;8.30;;;4.00;;
74872;SDS011;68776;44.762;37.698;2023-06-14T01:20:06;9.23;;;3.67;;
74872;SDS011;68776;44.762;37.698;2023-06-14T01:21:25;10.18;;;3.35;;
74872;SDS011;68776;44.762;37.698;2023-06-14T01:22:26;9.45;;;3.85;;
74872;SDS011;68776;44.762;37.698;2023-06-14T01:23:29;10.35;;;3.35;;
74872;SDS011;68776;44.762;37.698;2023-06-14T01:24:33;9.88;;;4.38;;
74872;SDS011;68776;44.762;37.698;2023-06-14T01:25:35;8.50;;;3.35;;
74872;SDS011;68776;44.762;37.698;2023-06-14T01:26:37;7.90;;;2.92;;
74872;SDS011;68776;44.762;37.698;2023-06-14T01:27:46;7.80;;;3.63;;
74872;SDS011;68776;44.762;37.698;2023-06-14T01:28:49;8.60;;;3.65;;
74872;SDS011;68776;44.762;37.698;2023-06-14T01:29:52;8.00;;;3.90;;
74872;SDS011;68776;44.762;37.698;2023-06-14T01:30:56;8.15;;;3.67;;
74872;SDS011;68776;44.762;37.698;2023-06-14T01:32:03;10.63;;;2.95;;
74872;SDS011;68776;44.762;37.698;2023-06-14T01:33:05;11.67;;;3.00;;
74872;SDS011;68776;44.762;37.698;2023-06-14T01:34:06;9.93;;;4.50;;
74872;SDS011;68776;44.762;37.698;2023-06-14T01:35:09;9.90;;;3.03;;
74872;SDS011;68776;44.762;37.698;2023-06-14T01:36:10;9.20;;;3.47;;
74872;SDS011;68776;44.762;37.698;2023-06-14T01:37:11;10.55;;;3.92;;
74872;SDS011;68776;44.762;37.698;2023-06-14T01:38:14;8.20;;;3.15;;
74872;SDS011;68776;44.762;37.698;2023-06-14T01:39:17;8.35;;;2.72;;
74872;SDS011;68776;44.762;37.698;2023-06-14T01:40:19;8.50;;;3.40;;
74872;SDS011;68776;44.762;37.698;2023-06-14T01:41:21;8.65;;;3.55;;
74872;SDS011;68776;44.762;37.698;2023-06-14T01:42:23;8.70;;;3.35;;
74872;SDS011;68776;44.762;37.698;2023-06-14T01:43:25;9.47;;;4.20;;
74872;SDS011;68776;44.762;37.698;2023-06-14T01:44:27;11.68;;;3.53;;
74872;SDS011;68776;44.762;37.698;2023-06-14T01:45:30;11.90;;;4.10;;
74872;SDS011;68776;44.762;37.698;2023-06-14T01:46:31;8.23;;;3.05;;
74872;SDS011;68776;44.762;37.698;2023-06-14T01:47:33;8.30;;;3.50;;
74872;SDS011;68776;44.762;37.698;2023-06-14T01:48:36;9.18;;;3.47;;
74872;SDS011;68776;44.762;37.698;2023-06-14T01:49:38;8.50;;;3.35;;
74872;SDS011;68776;44.762;37.698;2023-06-14T01:50:40;11.45;;;3.67;;
74872;SDS011;68776;44.762;37.698;2023-06-14T01:51:41;9.82;;;3.22;;
74872;SDS011;68776;44.762;37.698;2023-06-14T01:52:42;8.40;;;3.00;;
74872;SDS011;68776;44.762;37.698;2023-06-14T01:53:44;10.20;;;3.92;;
74872;SDS011;68776;44.762;37.698;2023-06-14T01:54:47;7.55;;;3.03;;
74872;SDS011;68776;44.762;37.698;2023-06-14T01:55:48;7.88;;;3.20;;
74872;SDS011;68776;44.762;37.698;2023-06-14T01:56:49;10.40;;;3.65;;
74872;SDS011;68776;44.762;37.698;2023-06-14T01:57:50;11.03;;;3.80;;
74872;SDS011;68776;44.762;37.698;2023-06-14T01:58:52;6.75;;;2.60;;
74872;SDS011;68776;44.762;37.698;2023-06-14T01:59:54;9.00;;;3.85;;
74872;SDS011;68776;44.762;37.698;2023-06-14T02:00:55;11.10;;;3.57;;
74872;SDS011;68776;44.762;37.698;2023-06-14T02:01:56;8.25;;;3.58;;
74872;SDS011;68776;44.762;37.698;2023-06-14T02:02:57;9.38;;;3.53;;
74872;SDS011;68776;44.762;37.698;2023-06-14T02:04:00;8.07;;;3.33;;
74872;SDS011;68776;44.762;37.698;2023-06-14T02:05:01;7.88;;;3.20;;
74872;SDS011;68776;44.762;37.698;2023-06-14T02:06:02;8.13;;;2.65;;
74872;SDS011;68776;44.762;37.698;2023-06-14T02:07:03;9.97;;;3.57;;
74872;SDS011;68776;44.762;37.698;2023-06-14T02:08:05;7.90;;;3.00;;
74872;SDS011;68776;44.762;37.698;2023-06-14T02:09:06;8.38;;;2.97;;
74872;SDS011;68776;44.762;37.698;2023-06-14T02:10:07;9.70;;;3.30;;
74872;SDS011;68776;44.762;37.698;2023-06-14T02:11:08;11.05;;;3.65;;
74872;SDS011;68776;44.762;37.698;2023-06-14T02:12:09;7.85;;;3.28;;
74872;SDS011;68776;44.762;37.698;2023-06-14T02:13:11;8.50;;;3.50;;
74872;SDS011;68776;44.762;37.698;2023-06-14T02:14:13;8.60;;;3.08;;
74872;SDS011;68776;44.762;37.698;2023-06-14T02:15:15;8.70;;;3.27;;
74872;SDS011;68776;44.762;37.698;2023-06-14T02:16:20;10.32;;;3.92;;
74872;SDS011;68776;44.762;37.698;2023-06-14T02:17:22;7.80;;;3.30;;
74872;SDS011;68776;44.762;37.698;2023-06-14T02:18:23;9.13;;;4.00;;
74872;SDS011;68776;44.762;37.698;2023-06-14T02:19:24;9.27;;;3.13;;
74872;SDS011;68776;44.762;37.698;2023-06-14T02:20:25;6.70;;;2.92;;
74872;SDS011;68776;44.762;37.698;2023-06-14T02:21:26;8.10;;;3.40;;
74872;SDS011;68776;44.762;37.698;2023-06-14T02:22:27;7.90;;;3.70;;
74872;SDS011;68776;44.762;37.698;2023-06-14T02:23:28;7.57;;;3.00;;
74872;SDS011;68776;44.762;37.698;2023-06-14T02:24:29;7.93;;;2.92;;
74872;SDS011;68776;44.762;37.698;2023-06-14T02:25:30;6.50;;;2.75;;
74872;SDS011;68776;44.762;37.698;2023-06-14T02:26:31;7.30;;;2.90;;
74872;SDS011;68776;44.762;37.698;2023-06-14T02:27:33;12.07;;;3.30;;
74872;SDS011;68776;44.762;37.698;2023-06-14T02:28:35;7.03;;;2.80;;
74872;SDS011;68776;44.762;37.698;2023-06-14T02:29:36;8.15;;;2.97;;
74872;SDS011;68776;44.762;37.698;2023-06-14T02:30:38;8.82;;;3.47;;
74872;SDS011;68776;44.762;37.698;2023-06-14T02:31:39;7.72;;;3.15;;
74872;SDS011;68776;44.762;37.698;2023-06-14T02:32:41;8.40;;;3.55;;
74872;SDS011;68776;44.762;37.698;2023-06-14T02:33:43;7.15;;;2.95;;
74872;SDS011;68776;44.762;37.698;2023-06-14T02:34:44;7.90;;;3.22;;
74872;SDS011;68776;44.762;37.698;2023-06-14T02:35:45;10.85;;;3.70;;
74872;SDS011;68776;44.762;37.698;2023-06-14T02:36:46;7.85;;;3.40;;
74872;SDS011;68776;44.762;37.698;2023-06-14T02:37:48;7.93;;;3.70;;
74872;SDS011;68776;44.762;37.698;2023-06-14T02:38:49;11.02;;;4.00;;
74872;SDS011;68776;44.762;37.698;2023-06-14T02:39:50;7.50;;;3.33;;
74872;SDS011;68776;44.762;37.698;2023-06-14T02:40:51;12.90;;;3.45;;
74872;SDS011;68776;44.762;37.698;2023-06-14T02:41:52;6.93;;;3.03;;
74872;SDS011;68776;44.762;37.698;2023-06-14T02:42:52;8.98;;;3.95;;
74872;SDS011;68776;44.762;37.698;2023-06-14T02:43:53;7.43;;;3.05;;
74872;SDS011;68776;44.762;37.698;2023-06-14T02:44:56;11.35;;;3.53;;
74872;SDS011;68776;44.762;37.698;2023-06-14T02:45:57;9.57;;;3.20;;
74872;SDS011;68776;44.762;37.698;2023-06-14T02:46:58;10.27;;;3.90;;
74872;SDS011;68776;44.762;37.698;2023-06-14T02:48:01;10.48;;;3.80;;
74872;SDS011;68776;44.762;37.698;2023-06-14T02:49:02;8.90;;;3.53;;
74872;SDS011;68776;44.762;37.698;2023-06-14T02:50:03;16.45;;;4.32;;
74872;SDS011;68776;44.762;37.698;2023-06-14T02:51:04;11.25;;;4.05;;
74872;SDS011;68776;44.762;37.698;2023-06-14T02:52:06;10.27;;;3.55;;
74872;SDS011;68776;44.762;37.698;2023-06-14T02:53:09;9.20;;;3.33;;
74872;SDS011;68776;44.762;37.698;2023-06-14T02:54:10;8.55;;;3.20;;
74872;SDS011;68776;44.762;37.698;2023-06-14T02:55:12;9.55;;;4.35;;
74872;SDS011;68776;44.762;37.698;2023-06-14T02:56:14;10.43;;;3.92;;
74872;SDS011;68776;44.762;37.698;2023-06-14T02:57:18;8.23;;;3.43;;
74872;SDS011;68776;44.762;37.698;2023-06-14T02:58:19;11.63;;;3.70;;
74872;SDS011;68776;44.762;37.698;2023-06-14T02:59:20;8.85;;;4.25;;
74872;SDS011;68776;44.762;37.698;2023-06-14T03:00:22;10.30;;;3.75;;
74872;SDS011;68776;44.762;37.698;2023-06-14T03:01:25;8.60;;;3.97;;
74872;SDS011;68776;44.762;37.698;2023-06-14T03:02:35;10.63;;;4.95;;
74872;SDS011;68776;44.762;37.698;2023-06-14T03:03:36;10.73;;;4.23;;
74872;SDS011;68776;44.762;37.698;2023-06-14T03:04:38;10.10;;;4.45;;
74872;SDS011;68776;44.762;37.698;2023-06-14T03:05:44;8.40;;;3.10;;
74872;SDS011;68776;44.762;37.698;2023-06-14T03:06:48;10.38;;;4.72;;
74872;SDS011;68776;44.762;37.698;2023-06-14T03:07:53;10.30;;;3.55;;
74872;SDS011;68776;44.762;37.698;2023-06-14T03:08:55;11.95;;;4.03;;
74872;SDS011;68776;44.762;37.698;2023-06-14T03:09:57;11.30;;;4.60;;
74872;SDS011;68776;44.762;37.698;2023-06-14T03:10:59;10.33;;;4.13;;
74872;SDS011;68776;44.762;37.698;2023-06-14T03:12:04;11.85;;;4.25;;
74872;SDS011;68776;44.762;37.698;2023-06-14T03:13:07;10.15;;;3.38;;
74872;SDS011;68776;44.762;37.698;2023-06-14T03:14:08;9.48;;;2.83;;
74872;SDS011;68776;44.762;37.698;2023-06-14T03:15:11;7.53;;;2.67;;
74872;SDS011;68776;44.762;37.698;2023-06-14T03:16:16;8.88;;;4.05;;
74872;SDS011;68776;44.762;37.698;2023-06-14T03:17:20;9.20;;;3.45;;
74872;SDS011;68776;44.762;37.698;2023-06-14T03:18:21;12.63;;;3.50;;
74872;SDS011;68776;44.762;37.698;2023-06-14T03:19:25;10.05;;;3.75;;
74872;SDS011;68776;44.762;37.698;2023-06-14T03:20:28;9.02;;;3.72;;
74872;SDS011;68776;44.762;37.698;2023-06-14T03:21:30;9.02;;;3.58;;
74872;SDS011;68776;44.762;37.698;2023-06-14T03:22:34;8.65;;;3.47;;
74872;SDS011;68776;44.762;37.698;2023-06-14T03:23:35;6.78;;;3.20;;
74872;SDS011;68776;44.762;37.698;2023-06-14T03:24:37;9.93;;;3.55;;
74872;SDS011;68776;44.762;37.698;2023-06-14T03:25:44;8.40;;;3.47;;
74872;SDS011;68776;44.762;37.698;2023-06-14T03:26:47;9.32;;;4.13;;
74872;SDS011;68776;44.762;37.698;2023-06-14T03:27:49;9.15;;;3.85;;
74872;SDS011;68776;44.762;37.698;2023-06-14T03:28:50;9.23;;;3.58;;
74872;SDS011;68776;44.762;37.698;2023-06-14T03:29:52;9.95;;;4.40;;
74872;SDS011;68776;44.762;37.698;2023-06-14T03:30:53;10.40;;;3.92;;
74872;SDS011;68776;44.762;37.698;2023-06-14T03:31:58;11.98;;;4.00;;
74872;SDS011;68776;44.762;37.698;2023-06-14T03:33:08;7.72;;;3.17;;
74872;SDS011;68776;44.762;37.698;2023-06-14T03:34:12;10.38;;;4.20;;
74872;SDS011;68776;44.762;37.698;2023-06-14T03:35:14;11.75;;;4.25;;
74872;SDS011;68776;44.762;37.698;2023-06-14T03:36:18;15.07;;;4.82;;
74872;SDS011;68776;44.762;37.698;2023-06-14T03:37:19;8.85;;;3.70;;
74872;SDS011;68776;44.762;37.698;2023-06-14T03:38:21;10.87;;;3.43;;
74872;SDS011;68776;44.762;37.698;2023-06-14T03:39:23;11.32;;;3.95;;
74872;SDS011;68776;44.762;37.698;2023-06-14T03:40:24;13.25;;;4.78;;
74872;SDS011;68776;44.762;37.698;2023-06-14T03:41:33;11.48;;;5.47;;
74872;SDS011;68776;44.762;37.698;2023-06-14T03:42:34;11.70;;;4.30;;
74872;SDS011;68776;44.762;37.698;2023-06-14T03:43:35;10.45;;;4.13;;
74872;SDS011;68776;44.762;37.698;2023-06-14T03:44:36;11.30;;;4.20;;
74872;SDS011;68776;44.762;37.698;2023-06-14T03:45:38;12.13;;;5.50;;
74872;SDS011;68776;44.762;37.698;2023-06-14T03:46:40;11.50;;;3.72;;
74872;SDS011;68776;44.762;37.698;2023-06-14T03:47:42;15.30;;;6.13;;
74872;SDS011;68776;44.762;37.698;2023-06-14T03:48:43;19.80;;;6.20;;
74872;SDS011;68776;44.762;37.698;2023-06-14T03:49:44;11.45;;;5.57;;
74872;SDS011;68776;44.762;37.698;2023-06-14T03:50:45;12.63;;;5.90;;
74872;SDS011;68776;44.762;37.698;2023-06-14T03:51:46;13.23;;;5.90;;
74872;SDS011;68776;44.762;37.698;2023-06-14T03:52:52;13.45;;;4.40;;
74872;SDS011;68776;44.762;37.698;2023-06-14T03:53:54;12.13;;;4.68;;
74872;SDS011;68776;44.762;37.698;2023-06-14T03:54:56;16.17;;;5.23;;
74872;SDS011;68776;44.762;37.698;2023-06-14T03:55:57;10.38;;;4.70;;
74872;SDS011;68776;44.762;37.698;2023-06-14T03:57:07;12.23;;;4.07;;
74872;SDS011;68776;44.762;37.698;2023-06-14T03:58:08;8.60;;;3.22;;
74872;SDS011;68776;44.762;37.698;2023-06-14T03:59:11;10.10;;;4.30;;
74872;SDS011;68776;44.762;37.698;2023-06-14T04:00:12;11.05;;;4.80;;
74872;SDS011;68776;44.762;37.698;2023-06-14T04:01:17;9.65;;;4.57;;
74872;SDS011;68776;44.762;37.698;2023-06-14T04:02:18;13.70;;;4.78;;
74872;SDS011;68776;44.762;37.698;2023-06-14T04:03:20;11.25;;;4.32;;
74872;SDS011;68776;44.762;37.698;2023-06-14T04:04:24;11.15;;;4.40;;
74872;SDS011;68776;44.762;37.698;2023-06-14T04:05:30;12.32;;;4.40;;
74872;SDS011;68776;44.762;37.698;2023-06-14T04:06:31;11.25;;;4.75;;
74872;SDS011;68776;44.762;37.698;2023-06-14T04:07:33;11.37;;;4.90;;
74872;SDS011;68776;44.762;37.698;2023-06-14T04:08:40;10.55;;;4.82;;
74872;SDS011;68776;44.762;37.698;2023-06-14T04:09:42;11.20;;;4.95;;
74872;SDS011;68776;44.762;37.698;2023-06-14T04:10:43;9.15;;;4.03;;
74872;SDS011;68776;44.762;37.698;2023-06-14T04:11:44;10.88;;;4.85;;
74872;SDS011;68776;44.762;37.698;2023-06-14T04:12:45;10.95;;;4.32;;
74872;SDS011;68776;44.762;37.698;2023-06-14T04:13:46;9.93;;;4.30;;
74872;SDS011;68776;44.762;37.698;2023-06-14T04:14:47;12.65;;;4.53;;
74872;SDS011;68776;44.762;37.698;2023-06-14T04:15:48;10.75;;;4.60;;
74872;SDS011;68776;44.762;37.698;2023-06-14T04:16:54;8.73;;;3.90;;
74872;SDS011;68776;44.762;37.698;2023-06-14T04:17:56;10.70;;;4.80;;
74872;SDS011;68776;44.762;37.698;2023-06-14T04:18:58;10.32;;;5.22;;
74872;SDS011;68776;44.762;37.698;2023-06-14T04:19:59;12.43;;;5.00;;
74872;SDS011;68776;44.762;37.698;2023-06-14T04:21:01;13.80;;;5.43;;
74872;SDS011;68776;44.762;37.698;2023-06-14T04:22:03;13.85;;;5.32;;
74872;SDS011;68776;44.762;37.698;2023-06-14T04:23:11;13.27;;;5.05;;
74872;SDS011;68776;44.762;37.698;2023-06-14T04:24:19;11.00;;;5.65;;
74872;SDS011;68776;44.762;37.698;2023-06-14T04:25:22;10.60;;;5.32;;
74872;SDS011;68776;44.762;37.698;2023-06-14T04:26:23;13.82;;;5.20;;
74872;SDS011;68776;44.762;37.698;2023-06-14T04:27:30;11.75;;;4.53;;
74872;SDS011;68776;44.762;37.698;2023-06-14T04:28:35;12.80;;;4.75;;
74872;SDS011;68776;44.762;37.698;2023-06-14T04:29:41;13.05;;;4.75;;
74872;SDS011;68776;44.762;37.698;2023-06-14T04:30:46;12.20;;;5.03;;
74872;SDS011;68776;44.762;37.698;2023-06-14T04:31:49;11.95;;;5.05;;
74872;SDS011;68776;44.762;37.698;2023-06-14T04:32:52;12.52;;;4.75;;
74872;SDS011;68776;44.762;37.698;2023-06-14T04:33:54;12.75;;;5.25;;
74872;SDS011;68776;44.762;37.698;2023-06-14T04:34:57;12.82;;;5.07;;
74872;SDS011;68776;44.762;37.698;2023-06-14T04:36:00;11.07;;;4.53;;
74872;SDS011;68776;44.762;37.698;2023-06-14T04:37:01;10.93;;;4.18;;
74872;SDS011;68776;44.762;37.698;2023-06-14T04:38:06;11.95;;;4.40;;
74872;SDS011;68776;44.762;37.698;2023-06-14T04:39:10;8.50;;;3.80;;
74872;SDS011;68776;44.762;37.698;2023-06-14T04:40:11;10.18;;;4.30;;
74872;SDS011;68776;44.762;37.698;2023-06-14T04:41:13;10.63;;;4.75;;
74872;SDS011;68776;44.762;37.698;2023-06-14T04:42:17;13.75;;;4.90;;
74872;SDS011;68776;44.762;37.698;2023-06-14T04:43:21;11.60;;;4.90;;
74872;SDS011;68776;44.762;37.698;2023-06-14T04:44:30;12.27;;;5.20;;
74872;SDS011;68776;44.762;37.698;2023-06-14T04:45:34;13.50;;;4.45;;
74872;SDS011;68776;44.762;37.698;2023-06-14T04:46:37;12.00;;;4.32;;
74872;SDS011;68776;44.762;37.698;2023-06-14T04:47:48;11.68;;;4.35;;
74872;SDS011;68776;44.762;37.698;2023-06-14T04:48:51;10.27;;;4.75;;
74872;SDS011;68776;44.762;37.698;2023-06-14T04:49:52;9.60;;;4.15;;
74872;SDS011;68776;44.762;37.698;2023-06-14T04:50:55;11.38;;;4.43;;
74872;SDS011;68776;44.762;37.698;2023-06-14T04:51:57;12.38;;;4.15;;
74872;SDS011;68776;44.762;37.698;2023-06-14T04:53:02;11.55;;;4.68;;
74872;SDS011;68776;44.762;37.698;2023-06-14T04:54:04;10.40;;;4.30;;
74872;SDS011;68776;44.762;37.698;2023-06-14T04:55:05;10.35;;;4.63;;
74872;SDS011;68776;44.762;37.698;2023-06-14T04:56:07;11.32;;;4.45;;
74872;SDS011;68776;44.762;37.698;2023-06-14T04:57:08;8.90;;;3.90;;
74872;SDS011;68776;44.762;37.698;2023-06-14T04:58:18;13.77;;;4.50;;
74872;SDS011;68776;44.762;37.698;2023-06-14T04:59:19;9.77;;;4.30;;
74872;SDS011;68776;44.762;37.698;2023-06-14T05:00:20;10.40;;;4.38;;
74872;SDS011;68776;44.762;37.698;2023-06-14T05:01:21;10.65;;;4.20;;
74872;SDS011;68776;44.762;37.698;2023-06-14T05:02:23;12.52;;;4.47;;
74872;SDS011;68776;44.762;37.698;2023-06-14T05:03:26;10.77;;;4.73;;
74872;SDS011;68776;44.762;37.698;2023-06-14T05:04:28;15.07;;;5.43;;
74872;SDS011;68776;44.762;37.698;2023-06-14T05:05:30;12.85;;;5.32;;
74872;SDS011;68776;44.762;37.698;2023-06-14T05:06:34;10.38;;;4.10;;
74872;SDS011;68776;44.762;37.698;2023-06-14T05:07:34;11.77;;;3.97;;
74872;SDS011;68776;44.762;37.698;2023-06-14T05:08:36;10.80;;;4.10;;
74872;SDS011;68776;44.762;37.698;2023-06-14T05:09:37;11.35;;;4.10;;
74872;SDS011;68776;44.762;37.698;2023-06-14T05:10:38;12.88;;;5.18;;
74872;SDS011;68776;44.762;37.698;2023-06-14T05:11:39;11.75;;;5.05;;
74872;SDS011;68776;44.762;37.698;2023-06-14T05:12:42;13.93;;;5.93;;
74872;SDS011;68776;44.762;37.698;2023-06-14T05:13:45;16.42;;;5.22;;
74872;SDS011;68776;44.762;37.698;2023-06-14T05:14:47;10.82;;;4.55;;
74872;SDS011;68776;44.762;37.698;2023-06-14T05:15:50;10.20;;;4.47;;
74872;SDS011;68776;44.762;37.698;2023-06-14T05:16:52;10.10;;;4.50;;
74872;SDS011;68776;44.762;37.698;2023-06-14T05:17:53;9.35;;;4.35;;
74872;SDS011;68776;44.762;37.698;2023-06-14T05:18:55;10.33;;;4.20;;
74872;SDS011;68776;44.762;37.698;2023-06-14T05:19:56;7.95;;;3.47;;
74872;SDS011;68776;44.762;37.698;2023-06-14T05:20:57;9.52;;;3.25;;
74872;SDS011;68776;44.762;37.698;2023-06-14T05:21:58;8.67;;;3.93;;
74872;SDS011;68776;44.762;37.698;2023-06-14T05:23:00;8.25;;;3.25;;
74872;SDS011;68776;44.762;37.698;2023-06-14T05:24:01;9.60;;;3.03;;
74872;SDS011;68776;44.762;37.698;2023-06-14T05:25:02;7.93;;;3.28;;
74872;SDS011;68776;44.762;37.698;2023-06-14T05:26:03;8.55;;;2.90;;
74872;SDS011;68776;44.762;37.698;2023-06-14T05:27:05;8.43;;;3.10;;
74872;SDS011;68776;44.762;37.698;2023-06-14T05:28:06;10.00;;;3.05;;
74872;SDS011;68776;44.762;37.698;2023-06-14T05:29:07;7.43;;;2.97;;
74872;SDS011;68776;44.762;37.698;2023-06-14T05:30:08;7.07;;;2.85;;
74872;SDS011;68776;44.762;37.698;2023-06-14T05:31:09;11.30;;;3.22;;
74872;SDS011;68776;44.762;37.698;2023-06-14T05:32:10;12.43;;;3.55;;
74872;SDS011;68776;44.762;37.698;2023-06-14T05:33:11;9.52;;;3.15;;
74872;SDS011;68776;44.762;37.698;2023-06-14T05:34:12;11.93;;;3.73;;
74872;SDS011;68776;44.762;37.698;2023-06-14T05:35:13;7.35;;;3.10;;
74872;SDS011;68776;44.762;37.698;2023-06-14T05:36:15;10.75;;;3.47;;
74872;SDS011;68776;44.762;37.698;2023-06-14T05:37:16;8.80;;;3.20;;
74872;SDS011;68776;44.762;37.698;2023-06-14T05:38:17;7.78;;;3.13;;
74872;SDS011;68776;44.762;37.698;2023-06-14T05:39:18;7.70;;;3.13;;
74872;SDS011;68776;44.762;37.698;2023-06-14T05:40:19;9.43;;;3.78;;
74872;SDS011;68776;44.762;37.698;2023-06-14T05:41:20;9.32;;;3.75;;
74872;SDS011;68776;44.762;37.698;2023-06-14T05:42:22;10.23;;;3.40;;
74872;SDS011;68776;44.762;37.698;2023-06-14T05:43:23;9.68;;;3.53;;
74872;SDS011;68776;44.762;37.698;2023-06-14T05:44:23;12.50;;;4.03;;
74872;SDS011;68776;44.762;37.698;2023-06-14T05:45:24;15.13;;;4.25;;
74872;SDS011;68776;44.762;37.698;2023-06-14T05:46:25;12.77;;;4.70;;
74872;SDS011;68776;44.762;37.698;2023-06-14T05:47:26;8.75;;;4.05;;
74872;SDS011;68776;44.762;37.698;2023-06-14T05:48:28;8.18;;;3.15;;
74872;SDS011;68776;44.762;37.698;2023-06-14T05:49:30;12.07;;;4.10;;
74872;SDS011;68776;44.762;37.698;2023-06-14T05:50:31;8.32;;;3.30;;
74872;SDS011;68776;44.762;37.698;2023-06-14T05:51:32;7.47;;;2.95;;
74872;SDS011;68776;44.762;37.698;2023-06-14T05:52:34;10.18;;;3.55;;
74872;SDS011;68776;44.762;37.698;2023-06-14T05:53:37;7.85;;;3.08;;
74872;SDS011;68776;44.762;37.698;2023-06-14T05:54:38;9.02;;;3.55;;
74872;SDS011;68776;44.762;37.698;2023-06-14T05:55:39;8.35;;;3.85;;
74872;SDS011;68776;44.762;37.698;2023-06-14T05:56:40;9.85;;;3.50;;
74872;SDS011;68776;44.762;37.698;2023-06-14T05:57:41;10.55;;;3.28;;
74872;SDS011;68776;44.762;37.698;2023-06-14T05:58:42;8.30;;;3.00;;
74872;SDS011;68776;44.762;37.698;2023-06-14T05:59:44;7.13;;;2.73;;
74872;SDS011;68776;44.762;37.698;2023-06-14T06:00:45;7.18;;;2.67;;
74872;SDS011;68776;44.762;37.698;2023-06-14T06:01:46;9.98;;;2.65;;
74872;SDS011;68776;44.762;37.698;2023-06-14T06:02:48;8.18;;;2.50;;
74872;SDS011;68776;44.762;37.698;2023-06-14T06:03:49;7.03;;;2.80;;
74872;SDS011;68776;44.762;37.698;2023-06-14T06:04:50;8.43;;;2.70;;
74872;SDS011;68776;44.762;37.698;2023-06-14T06:05:51;8.85;;;3.17;;
74872;SDS011;68776;44.762;37.698;2023-06-14T06:06:52;7.93;;;3.00;;
74872;SDS011;68776;44.762;37.698;2023-06-14T06:07:53;7.55;;;2.45;;
74872;SDS011;68776;44.762;37.698;2023-06-14T06:08:54;7.70;;;2.72;;